Terminal Aerodrome Forecast
Issued by NWS

Home | Current Version | Previous Version | Text Only | Print | Product List | Glossary On
Versions: 1 2 3 4 5 6 7 8 9 10 11 12 13 14 15 16 17 18 19 20 21 22 23 24 25 26 27 28 29 30 31 32 33 34 35 36 37
000
FTAK31 PAFA 261423 AAB
TAFATA
TAF AMD
PATA 261423Z 2614/2712 06005KT P6SM OVC020
      TEMPO 2614/2618 3SM -SHSN
     FM261800 VRB04KT 3SM -SN BR OVC020
     FM270400 24005KT P6SM SCT020 BKN040=

USA.gov is the U.S. government's official web portal to all federal, state and local government web resources and services.